sensor_id;sensor_type;location;lat;lon;timestamp;pressure;altitude;pressure_sealevel;temperature;humidity
54439;BME280;40347;53.848;27.498;2022-11-24T00:04:23;1009.9;;;1;61.6
54439;BME280;40347;53.848;27.498;2022-11-24T00:09:03;1010;;;1;61.8
54439;BME280;40347;53.848;27.498;2022-11-24T00:14:13;1010;;;0.9;61.7
54439;BME280;40347;53.848;27.498;2022-11-24T00:19:03;1010;;;0.8;61.9
54439;BME280;40347;53.848;27.498;2022-11-24T00:24:13;1010;;;0.8;62.1
54439;BME280;40347;53.848;27.498;2022-11-24T00:29:04;1010;;;0.8;62.1
54439;BME280;40347;53.848;27.498;2022-11-24T00:34:23;1010;;;0.9;62
54439;BME280;40347;53.848;27.498;2022-11-24T00:39:03;1010.1;;;0.8;62.1
54439;BME280;40347;53.848;27.498;2022-11-24T00:44:11;1010.1;;;0.8;62.2
54439;BME280;40347;53.848;27.498;2022-11-24T00:49:03;1010;;;0.9;62.3
54439;BME280;40347;53.848;27.498;2022-11-24T00:54:03;1010;;;1.1;62.4
54439;BME280;40347;53.848;27.498;2022-11-24T00:59:03;1010;;;1.1;62.3
54439;BME280;40347;53.848;27.498;2022-11-24T01:04:03;1010;;;1.1;62.1
54439;BME280;40347;53.848;27.498;2022-11-24T01:09:03;1010.1;;;1.2;62.1
54439;BME280;40347;53.848;27.498;2022-11-24T01:14:15;1010.1;;;1.2;62.1
54439;BME280;40347;53.848;27.498;2022-11-24T01:19:03;1010.2;;;1.2;62.2
54439;BME280;40347;53.848;27.498;2022-11-24T01:24:03;1010.1;;;1.3;62.4
54439;BME280;40347;53.848;27.498;2022-11-24T01:29:03;1010.1;;;1.2;62.7
54439;BME280;40347;53.848;27.498;2022-11-24T01:34:03;1010;;;1.1;63
54439;BME280;40347;53.848;27.498;2022-11-24T01:39:21;1010.1;;;1.1;63.7
54439;BME280;40347;53.848;27.498;2022-11-24T01:44:18;1010.1;;;1;64
54439;BME280;40347;53.848;27.498;2022-11-24T01:49:12;1010.1;;;0.9;64
54439;BME280;40347;53.848;27.498;2022-11-24T01:54:13;1010.1;;;0.8;64.3
54439;BME280;40347;53.848;27.498;2022-11-24T01:59:11;1010.1;;;0.7;64.6
54439;BME280;40347;53.848;27.498;2022-11-24T02:04:37;1010.1;;;0.7;64.8
54439;BME280;40347;53.848;27.498;2022-11-24T02:09:21;1010.1;;;0.7;65
54439;BME280;40347;53.848;27.498;2022-11-24T02:14:03;1010;;;0.7;65
54439;BME280;40347;53.848;27.498;2022-11-24T02:19:03;1010;;;0.7;65
54439;BME280;40347;53.848;27.498;2022-11-24T02:24:20;1010;;;0.8;64.9
54439;BME280;40347;53.848;27.498;2022-11-24T02:29:03;1010;;;0.9;64.5
54439;BME280;40347;53.848;27.498;2022-11-24T02:34:13;1010.1;;;1;64.3
54439;BME280;40347;53.848;27.498;2022-11-24T02:39:04;1010.1;;;1.1;64.2
54439;BME280;40347;53.848;27.498;2022-11-24T02:44:09;1010;;;1.1;64.1
54439;BME280;40347;53.848;27.498;2022-11-24T02:49:31;1010;;;1.1;63.8
54439;BME280;40347;53.848;27.498;2022-11-24T02:54:31;1010;;;1.1;63.6
54439;BME280;40347;53.848;27.498;2022-11-24T02:59:03;1010;;;1.2;63.5
54439;BME280;40347;53.848;27.498;2022-11-24T03:04:03;1010;;;1.2;63.3
54439;BME280;40347;53.848;27.498;2022-11-24T03:09:03;1009.9;;;1.3;63.1
54439;BME280;40347;53.848;27.498;2022-11-24T03:14:09;1010;;;1.1;63
54439;BME280;40347;53.848;27.498;2022-11-24T03:19:03;1010;;;1.1;63.2
54439;BME280;40347;53.848;27.498;2022-11-24T03:24:21;1010;;;1.1;63.2
54439;BME280;40347;53.848;27.498;2022-11-24T03:29:13;1010;;;1.2;63.2
54439;BME280;40347;53.848;27.498;2022-11-24T03:34:03;1010;;;1.2;63.1
54439;BME280;40347;53.848;27.498;2022-11-24T03:39:03;1009.9;;;1.3;63.1
54439;BME280;40347;53.848;27.498;2022-11-24T03:44:23;1009.9;;;1.2;62.9
54439;BME280;40347;53.848;27.498;2022-11-24T03:49:23;1009.9;;;1.1;63
54439;BME280;40347;53.848;27.498;2022-11-24T03:54:03;1009.9;;;1;63.2
54439;BME280;40347;53.848;27.498;2022-11-24T03:59:13;1009.8;;;1.1;63.3
54439;BME280;40347;53.848;27.498;2022-11-24T04:04:09;1009.8;;;1;63.3
54439;BME280;40347;53.848;27.498;2022-11-24T04:09:09;1009.8;;;1;63.3
54439;BME280;40347;53.848;27.498;2022-11-24T04:14:41;1009.7;;;1;63.4
54439;BME280;40347;53.848;27.498;2022-11-24T04:19:03;1009.7;;;0.9;63.4
54439;BME280;40347;53.848;27.498;2022-11-24T04:24:13;1009.7;;;1;63.5
54439;BME280;40347;53.848;27.498;2022-11-24T04:29:21;1009.8;;;1;63.5
54439;BME280;40347;53.848;27.498;2022-11-24T04:34:21;1009.8;;;0.9;63.4
54439;BME280;40347;53.848;27.498;2022-11-24T04:39:15;1009.8;;;0.9;63.5
54439;BME280;40347;53.848;27.498;2022-11-24T04:44:25;1009.8;;;0.9;63.5
54439;BME280;40347;53.848;27.498;2022-11-24T04:49:13;1009.7;;;1;63.3
54439;BME280;40347;53.848;27.498;2022-11-24T04:54:13;1009.7;;;1;63.1
54439;BME280;40347;53.848;27.498;2022-11-24T04:59:19;1009.7;;;1;63
54439;BME280;40347;53.848;27.498;2022-11-24T05:04:03;1009.8;;;1;63
54439;BME280;40347;53.848;27.498;2022-11-24T05:09:25;1009.7;;;0.9;62.8
54439;BME280;40347;53.848;27.498;2022-11-24T05:14:03;1009.7;;;0.9;62.9
54439;BME280;40347;53.848;27.498;2022-11-24T05:19:11;1009.7;;;0.9;63
54439;BME280;40347;53.848;27.498;2022-11-24T05:24:03;1009.7;;;1;63
54439;BME280;40347;53.848;27.498;2022-11-24T05:29:03;1009.7;;;1;63
54439;BME280;40347;53.848;27.498;2022-11-24T05:34:11;1009.7;;;0.9;62.9
54439;BME280;40347;53.848;27.498;2022-11-24T05:39:23;1009.8;;;0.9;63
54439;BME280;40347;53.848;27.498;2022-11-24T05:44:11;1009.8;;;0.9;63.1
54439;BME280;40347;53.848;27.498;2022-11-24T05:49:21;1009.8;;;0.8;63.2
54439;BME280;40347;53.848;27.498;2022-11-24T05:54:03;1009.9;;;0.7;63.3
54439;BME280;40347;53.848;27.498;2022-11-24T05:59:23;1009.9;;;0.8;63.4
54439;BME280;40347;53.848;27.498;2022-11-24T06:04:03;1010;;;0.8;63.5
54439;BME280;40347;53.848;27.498;2022-11-24T06:09:11;1010;;;0.8;63.4
54439;BME280;40347;53.848;27.498;2022-11-24T06:14:11;1010;;;0.8;63.4
54439;BME280;40347;53.848;27.498;2022-11-24T06:19:15;1010;;;0.8;63.5
54439;BME280;40347;53.848;27.498;2022-11-24T06:24:13;1010;;;0.8;63.5
54439;BME280;40347;53.848;27.498;2022-11-24T06:29:13;1010.1;;;0.9;63.3
54439;BME280;40347;53.848;27.498;2022-11-24T06:34:19;1010.1;;;0.9;63.3
54439;BME280;40347;53.848;27.498;2022-11-24T06:39:03;1010.1;;;1;63.4
54439;BME280;40347;53.848;27.498;2022-11-24T06:44:03;1010.1;;;1.1;63.4
54439;BME280;40347;53.848;27.498;2022-11-24T06:49:11;1010.1;;;1.1;63.2
54439;BME280;40347;53.848;27.498;2022-11-24T06:54:21;1010.1;;;1.1;63
54439;BME280;40347;53.848;27.498;2022-11-24T06:59:03;1010.1;;;1;63.2
54439;BME280;40347;53.848;27.498;2022-11-24T07:04:03;1010.2;;;1.1;63.3
54439;BME280;40347;53.848;27.498;2022-11-24T07:09:03;1010.2;;;1.1;63.2
54439;BME280;40347;53.848;27.498;2022-11-24T07:14:11;1010.2;;;1.3;63
54439;BME280;40347;53.848;27.498;2022-11-24T07:19:13;1010.2;;;1.2;62.8
54439;BME280;40347;53.848;27.498;2022-11-24T07:24:11;1010.2;;;1.2;62.9
54439;BME280;40347;53.848;27.498;2022-11-24T07:29:03;1010.1;;;1.3;62.8
54439;BME280;40347;53.848;27.498;2022-11-24T07:34:03;1010.2;;;1.3;62.8
54439;BME280;40347;53.848;27.498;2022-11-24T07:39:25;1010.1;;;1.3;62.8
54439;BME280;40347;53.848;27.498;2022-11-24T07:44:13;1010.2;;;1.4;62.7
54439;BME280;40347;53.848;27.498;2022-11-24T07:49:11;1010.2;;;1.4;62.7
54439;BME280;40347;53.848;27.498;2022-11-24T07:54:03;1010.2;;;1.6;62.6
54439;BME280;40347;53.848;27.498;2022-11-24T07:59:15;1010.2;;;1.7;62.4
54439;BME280;40347;53.848;27.498;2022-11-24T08:04:11;1010.2;;;1.8;62.2
54439;BME280;40347;53.848;27.498;2022-11-24T08:09:03;1010.2;;;1.9;62.1
54439;BME280;40347;53.848;27.498;2022-11-24T08:14:03;1010.2;;;2;61.9
54439;BME280;40347;53.848;27.498;2022-11-24T08:19:17;1010.2;;;2.2;61.4
54439;BME280;40347;53.848;27.498;2022-11-24T08:24:03;1010.2;;;2.2;61.3
54439;BME280;40347;53.848;27.498;2022-11-24T08:29:03;1010.2;;;2.2;61.4
54439;BME280;40347;53.848;27.498;2022-11-24T08:34:11;1010.2;;;2.1;61.4
54439;BME280;40347;53.848;27.498;2022-11-24T08:39:27;1010.2;;;2;61.6
54439;BME280;40347;53.848;27.498;2022-11-24T08:44:03;1010.1;;;1.9;61.7
54439;BME280;40347;53.848;27.498;2022-11-24T08:49:03;1010.1;;;2;61.7
54439;BME280;40347;53.848;27.498;2022-11-24T08:54:03;1010.1;;;2.1;61.6
54439;BME280;40347;53.848;27.498;2022-11-24T08:59:21;1010.1;;;2.2;61.4
54439;BME280;40347;53.848;27.498;2022-11-24T09:04:21;1010.1;;;2.2;61.2
54439;BME280;40347;53.848;27.498;2022-11-24T09:09:11;1010.1;;;2.3;61.1
54439;BME280;40347;53.848;27.498;2022-11-24T09:14:03;1010.1;;;2.5;60.8
54439;BME280;40347;53.848;27.498;2022-11-24T09:19:04;1010.1;;;2.6;60.7
54439;BME280;40347;53.848;27.498;2022-11-24T09:24:03;1010;;;2.5;60.1
54439;BME280;40347;53.848;27.498;2022-11-24T09:29:03;1010;;;2.4;60.5
54439;BME280;40347;53.848;27.498;2022-11-24T09:34:03;1010;;;2.3;60.8
54439;BME280;40347;53.848;27.498;2022-11-24T09:39:03;1010;;;2.3;61
54439;BME280;40347;53.848;27.498;2022-11-24T09:44:06;1010;;;2.3;61
54439;BME280;40347;53.848;27.498;2022-11-24T09:49:03;1010;;;2.3;61.2
54439;BME280;40347;53.848;27.498;2022-11-24T09:54:04;1010;;;2.1;61.1
54439;BME280;40347;53.848;27.498;2022-11-24T09:59:13;1009.9;;;1.8;61.1
54439;BME280;40347;53.848;27.498;2022-11-24T10:04:04;1009.9;;;1.8;61.8
54439;BME280;40347;53.848;27.498;2022-11-24T10:09:14;1009.9;;;2;61.7
54439;BME280;40347;53.848;27.498;2022-11-24T10:14:07;1009.8;;;2.1;61.6
54439;BME280;40347;53.848;27.498;2022-11-24T10:19:04;1009.8;;;2.1;61.6
54439;BME280;40347;53.848;27.498;2022-11-24T10:24:22;1009.8;;;2.1;62.1
54439;BME280;40347;53.848;27.498;2022-11-24T10:29:09;1009.8;;;1.7;63
54439;BME280;40347;53.848;27.498;2022-11-24T10:34:15;1009.7;;;1.7;64.3
54439;BME280;40347;53.848;27.498;2022-11-24T10:39:14;1009.7;;;1.7;64.8
54439;BME280;40347;53.848;27.498;2022-11-24T10:44:03;1009.7;;;1.7;65.1
54439;BME280;40347;53.848;27.498;2022-11-24T10:49:13;1009.6;;;1.7;65.1
54439;BME280;40347;53.848;27.498;2022-11-24T10:54:15;1009.6;;;1.7;65.2
54439;BME280;40347;53.848;27.498;2022-11-24T10:59:14;1009.6;;;1.5;65.3
54439;BME280;40347;53.848;27.498;2022-11-24T11:04:15;1009.5;;;1.4;65.3
54439;BME280;40347;53.848;27.498;2022-11-24T11:09:15;1009.5;;;1.4;65.9
54439;BME280;40347;53.848;27.498;2022-11-24T11:14:09;1009.5;;;1.2;66.1
54439;BME280;40347;53.848;27.498;2022-11-24T11:19:44;1009.4;;;1.2;66.1
54439;BME280;40347;53.848;27.498;2022-11-24T11:24:04;1009.4;;;1.2;66.6
54439;BME280;40347;53.848;27.498;2022-11-24T11:29:12;1009.4;;;1.1;66.7
54439;BME280;40347;53.848;27.498;2022-11-24T11:34:14;1009.4;;;1;67.7
54439;BME280;40347;53.848;27.498;2022-11-24T11:39:19;1009.3;;;1.1;67.9
54439;BME280;40347;53.848;27.498;2022-11-24T11:44:27;1009.3;;;1.1;67.3
54439;BME280;40347;53.848;27.498;2022-11-24T11:49:09;1009.3;;;1.1;67.4
54439;BME280;40347;53.848;27.498;2022-11-24T11:54:15;1009.3;;;1.2;67.4
54439;BME280;40347;53.848;27.498;2022-11-24T11:59:24;1009.3;;;1.3;67.1
54439;BME280;40347;53.848;27.498;2022-11-24T12:04:13;1009.3;;;1.3;67
54439;BME280;40347;53.848;27.498;2022-11-24T12:09:06;1009.3;;;1;67
54439;BME280;40347;53.848;27.498;2022-11-24T12:14:06;1009.3;;;0.5;68
54439;BME280;40347;53.848;27.498;2022-11-24T12:19:14;1009.3;;;0.3;69.9
54439;BME280;40347;53.848;27.498;2022-11-24T12:24:29;1009.3;;;0.3;70.8
54439;BME280;40347;53.848;27.498;2022-11-24T12:29:07;1009.4;;;0.4;71.4
54439;BME280;40347;53.848;27.498;2022-11-24T12:34:09;1009.3;;;0.5;71.4
54439;BME280;40347;53.848;27.498;2022-11-24T12:39:04;1009.4;;;0.5;71.6
54439;BME280;40347;53.848;27.498;2022-11-24T12:44:03;1009.4;;;0.4;71.4
54439;BME280;40347;53.848;27.498;2022-11-24T12:49:15;1009.3;;;0.4;71
54439;BME280;40347;53.848;27.498;2022-11-24T12:54:12;1009.3;;;0.5;70.5
54439;BME280;40347;53.848;27.498;2022-11-24T12:59:08;1009.3;;;0.3;69.9
54439;BME280;40347;53.848;27.498;2022-11-24T13:04:05;1009.3;;;0.3;69.9
54439;BME280;40347;53.848;27.498;2022-11-24T13:09:11;1009.3;;;0.2;70.4
54439;BME280;40347;53.848;27.498;2022-11-24T13:14:05;1009.4;;;0.2;70.2
54439;BME280;40347;53.848;27.498;2022-11-24T13:19:06;1009.4;;;0.3;69.8
54439;BME280;40347;53.848;27.498;2022-11-24T13:24:04;1009.4;;;0.3;69.8
54439;BME280;40347;53.848;27.498;2022-11-24T13:29:28;1009.4;;;0.2;69.5
54439;BME280;40347;53.848;27.498;2022-11-24T13:34:41;1009.4;;;0.1;69.3
54439;BME280;40347;53.848;27.498;2022-11-24T13:39:03;1009.3;;;0.2;69.5
54439;BME280;40347;53.848;27.498;2022-11-24T13:45:46;1009.3;;;0.2;69.8
54439;BME280;40347;53.848;27.498;2022-11-24T13:49:18;1009.4;;;0.2;69.6
54439;BME280;40347;53.848;27.498;2022-11-24T13:54:03;1009.4;;;0.2;69.7
54439;BME280;40347;53.848;27.498;2022-11-24T13:59:15;1009.4;;;0.1;69.7
54439;BME280;40347;53.848;27.498;2022-11-24T14:04:21;1009.4;;;0;69.8
54439;BME280;40347;53.848;27.498;2022-11-24T14:09:05;1009.5;;;-0.1;70.1
54439;BME280;40347;53.848;27.498;2022-11-24T14:14:11;1009.5;;;-0.3;70.3
54439;BME280;40347;53.848;27.498;2022-11-24T14:19:07;1009.6;;;-0.3;70.7
54439;BME280;40347;53.848;27.498;2022-11-24T14:24:11;1009.7;;;-0.2;70.5
54439;BME280;40347;53.848;27.498;2022-11-24T14:29:04;1009.7;;;-0.2;70.4
54439;BME280;40347;53.848;27.498;2022-11-24T14:34:35;1009.8;;;-0.2;70.1
54439;BME280;40347;53.848;27.498;2022-11-24T14:39:03;1009.8;;;-0.1;70
54439;BME280;40347;53.848;27.498;2022-11-24T14:44:24;1009.8;;;-0.1;69.6
54439;BME280;40347;53.848;27.498;2022-11-24T14:49:17;1009.7;;;-0.3;69.9
54439;BME280;40347;53.848;27.498;2022-11-24T14:54:04;1009.7;;;-0.4;71.5
54439;BME280;40347;53.848;27.498;2022-11-24T14:59:15;1009.7;;;-0.3;70.8
54439;BME280;40347;53.848;27.498;2022-11-24T15:04:11;1009.7;;;-0.3;70.8
54439;BME280;40347;53.848;27.498;2022-11-24T15:09:03;1009.8;;;-0.3;70.6
54439;BME280;40347;53.848;27.498;2022-11-24T15:14:18;1009.8;;;-0.4;70.3
54439;BME280;40347;53.848;27.498;2022-11-24T15:19:03;1009.9;;;-0.5;70.6
54439;BME280;40347;53.848;27.498;2022-11-24T15:24:05;1009.8;;;-0.4;70.7
54439;BME280;40347;53.848;27.498;2022-11-24T15:29:13;1009.9;;;-0.4;70.2
54439;BME280;40347;53.848;27.498;2022-11-24T15:34:03;1009.9;;;-0.4;70
54439;BME280;40347;53.848;27.498;2022-11-24T15:39:03;1009.9;;;-0.3;70
54439;BME280;40347;53.848;27.498;2022-11-24T15:44:13;1009.9;;;-0.2;69.8
54439;BME280;40347;53.848;27.498;2022-11-24T15:49:03;1010;;;-0.2;69.6
54439;BME280;40347;53.848;27.498;2022-11-24T15:54:25;1010;;;0;69.5
54439;BME280;40347;53.848;27.498;2022-11-24T15:59:03;1010;;;0;69.4
54439;BME280;40347;53.848;27.498;2022-11-24T16:04:03;1010.1;;;-0.1;69.5
54439;BME280;40347;53.848;27.498;2022-11-24T16:09:03;1010.1;;;-0.1;69.5
54439;BME280;40347;53.848;27.498;2022-11-24T16:14:11;1010.1;;;-0.1;69.7
54439;BME280;40347;53.848;27.498;2022-11-24T16:19:03;1010.1;;;-0.1;69.9
54439;BME280;40347;53.848;27.498;2022-11-24T16:24:21;1010.1;;;-0.1;69.8
54439;BME280;40347;53.848;27.498;2022-11-24T16:29:03;1010.2;;;-0.1;69.9
54439;BME280;40347;53.848;27.498;2022-11-24T16:34:03;1010.2;;;0;70.1
54439;BME280;40347;53.848;27.498;2022-11-24T16:39:11;1010.2;;;0;69.8
54439;BME280;40347;53.848;27.498;2022-11-24T16:44:13;1010.1;;;-0.1;69.6
54439;BME280;40347;53.848;27.498;2022-11-24T16:49:03;1010.1;;;-0.1;69.8
54439;BME280;40347;53.848;27.498;2022-11-24T16:54:03;1010.2;;;0;70
54439;BME280;40347;53.848;27.498;2022-11-24T16:59:03;1010.2;;;0;70
54439;BME280;40347;53.848;27.498;2022-11-24T17:04:15;1010.1;;;0;69.9
54439;BME280;40347;53.848;27.498;2022-11-24T17:09:03;1010.1;;;0;70
54439;BME280;40347;53.848;27.498;2022-11-24T17:14:11;1010.2;;;0.1;70.2
54439;BME280;40347;53.848;27.498;2022-11-24T17:19:03;1010.2;;;-0.1;70
54439;BME280;40347;53.848;27.498;2022-11-24T17:24:03;1010.2;;;-0.1;69.9
54439;BME280;40347;53.848;27.498;2022-11-24T17:29:11;1010.3;;;0;70
54439;BME280;40347;53.848;27.498;2022-11-24T17:34:15;1010.3;;;0;69.8
54439;BME280;40347;53.848;27.498;2022-11-24T17:39:21;1010.3;;;0.1;69.6
54439;BME280;40347;53.848;27.498;2022-11-24T17:44:03;1010.4;;;0.2;69.4
54439;BME280;40347;53.848;27.498;2022-11-24T17:49:03;1010.4;;;0.1;69.3
54439;BME280;40347;53.848;27.498;2022-11-24T17:54:21;1010.4;;;0.2;69.4
54439;BME280;40347;53.848;27.498;2022-11-24T17:59:15;1010.4;;;0.3;69.2
54439;BME280;40347;53.848;27.498;2022-11-24T18:04:03;1010.4;;;0.4;69
54439;BME280;40347;53.848;27.498;2022-11-24T18:09:03;1010.4;;;0.4;69
54439;BME280;40347;53.848;27.498;2022-11-24T18:14:03;1010.4;;;0.4;68.8
54439;BME280;40347;53.848;27.498;2022-11-24T18:19:11;1010.4;;;0.4;68.7
54439;BME280;40347;53.848;27.498;2022-11-24T18:24:03;1010.4;;;0.4;68.7
54439;BME280;40347;53.848;27.498;2022-11-24T18:29:21;1010.4;;;0.5;68.8
54439;BME280;40347;53.848;27.498;2022-11-24T18:34:13;1010.4;;;0.6;68.6
54439;BME280;40347;53.848;27.498;2022-11-24T18:39:23;1010.3;;;0.6;68.7
54439;BME280;40347;53.848;27.498;2022-11-24T18:44:03;1010.4;;;0.6;68.5
54439;BME280;40347;53.848;27.498;2022-11-24T18:49:03;1010.4;;;0.5;68.4
54439;BME280;40347;53.848;27.498;2022-11-24T18:54:03;1010.4;;;0.5;68.4
54439;BME280;40347;53.848;27.498;2022-11-24T18:59:21;1010.4;;;0.6;68.7
54439;BME280;40347;53.848;27.498;2022-11-24T19:04:13;1010.5;;;0.7;68.9
54439;BME280;40347;53.848;27.498;2022-11-24T19:09:12;1010.5;;;0.6;68.7
54439;BME280;40347;53.848;27.498;2022-11-24T19:14:04;1010.5;;;0.6;68.9
54439;BME280;40347;53.848;27.498;2022-11-24T19:19:03;1010.5;;;0.7;69
54439;BME280;40347;53.848;27.498;2022-11-24T19:24:03;1010.5;;;0.7;69
54439;BME280;40347;53.848;27.498;2022-11-24T19:29:04;1010.5;;;0.7;69
54439;BME280;40347;53.848;27.498;2022-11-24T19:34:11;1010.6;;;0.7;69
54439;BME280;40347;53.848;27.498;2022-11-24T19:39:03;1010.7;;;0.7;69.1
54439;BME280;40347;53.848;27.498;2022-11-24T19:44:11;1010.7;;;0.6;69.1
54439;BME280;40347;53.848;27.498;2022-11-24T19:49:03;1010.7;;;0.6;69
54439;BME280;40347;53.848;27.498;2022-11-24T19:54:15;1010.7;;;0.7;69
54439;BME280;40347;53.848;27.498;2022-11-24T19:59:11;1010.7;;;0.7;68.9
54439;BME280;40347;53.848;27.498;2022-11-24T20:04:04;1010.7;;;0.8;68.8
54439;BME280;40347;53.848;27.498;2022-11-24T20:09:05;1010.7;;;0.8;68.7
54439;BME280;40347;53.848;27.498;2022-11-24T20:14:03;1010.7;;;0.9;68.7
54439;BME280;40347;53.848;27.498;2022-11-24T20:19:04;1010.7;;;0.9;68.6
54439;BME280;40347;53.848;27.498;2022-11-24T20:24:05;1010.7;;;0.8;68.6
54439;BME280;40347;53.848;27.498;2022-11-24T20:29:03;1010.8;;;0.9;68.7
54439;BME280;40347;53.848;27.498;2022-11-24T20:34:23;1010.8;;;0.9;68.6
54439;BME280;40347;53.848;27.498;2022-11-24T20:39:05;1010.8;;;0.9;68.6
54439;BME280;40347;53.848;27.498;2022-11-24T20:44:04;1010.8;;;0.9;68.6
54439;BME280;40347;53.848;27.498;2022-11-24T20:49:04;1010.9;;;1;68.6
54439;BME280;40347;53.848;27.498;2022-11-24T20:54:04;1010.9;;;1;68.8
54439;BME280;40347;53.848;27.498;2022-11-24T20:59:03;1010.9;;;1;68.8
54439;BME280;40347;53.848;27.498;2022-11-24T21:04:04;1011;;;1.1;68.9
54439;BME280;40347;53.848;27.498;2022-11-24T21:09:13;1011;;;1.1;69
54439;BME280;40347;53.848;27.498;2022-11-24T21:14:13;1011;;;1.2;69.3
54439;BME280;40347;53.848;27.498;2022-11-24T21:19:04;1011;;;1.2;69.3
54439;BME280;40347;53.848;27.498;2022-11-24T21:24:35;1011;;;1.2;69.3
54439;BME280;40347;53.848;27.498;2022-11-24T21:29:11;1011;;;1.1;69.2
54439;BME280;40347;53.848;27.498;2022-11-24T21:34:03;1011;;;1.1;69.4
54439;BME280;40347;53.848;27.498;2022-11-24T21:39:11;1011;;;1.2;69.7
54439;BME280;40347;53.848;27.498;2022-11-24T21:44:03;1011.1;;;1.3;69.7
54439;BME280;40347;53.848;27.498;2022-11-24T21:49:03;1011.1;;;1.3;69.6
54439;BME280;40347;53.848;27.498;2022-11-24T21:54:19;1011.1;;;1.3;69.6
54439;BME280;40347;53.848;27.498;2022-11-24T21:59:13;1011.1;;;1.2;69.7
54439;BME280;40347;53.848;27.498;2022-11-24T22:04:11;1011.2;;;1.3;69.6
54439;BME280;40347;53.848;27.498;2022-11-24T22:09:03;1011.3;;;1.3;69.7
54439;BME280;40347;53.848;27.498;2022-11-24T22:14:15;1011.3;;;1.3;69.7
54439;BME280;40347;53.848;27.498;2022-11-24T22:19:11;1011.3;;;1.3;69.8
54439;BME280;40347;53.848;27.498;2022-11-24T22:24:13;1011.3;;;1.3;69.9
54439;BME280;40347;53.848;27.498;2022-11-24T22:29:13;1011.4;;;1.3;69.9
54439;BME280;40347;53.848;27.498;2022-11-24T22:34:23;1011.4;;;1.3;70.1
54439;BME280;40347;53.848;27.498;2022-11-24T22:39:13;1011.3;;;1.4;70.2
54439;BME280;40347;53.848;27.498;2022-11-24T22:44:11;1011.3;;;1.5;70
54439;BME280;40347;53.848;27.498;2022-11-24T22:49:13;1011.3;;;1.5;69.9
54439;BME280;40347;53.848;27.498;2022-11-24T22:54:11;1011.3;;;1.6;69.8
54439;BME280;40347;53.848;27.498;2022-11-24T22:59:03;1011.3;;;1.6;69.8
54439;BME280;40347;53.848;27.498;2022-11-24T23:04:15;1011.4;;;1.7;69.8
54439;BME280;40347;53.848;27.498;2022-11-24T23:09:04;1011.4;;;1.7;69.5
54439;BME280;40347;53.848;27.498;2022-11-24T23:14:14;1011.5;;;1.6;69.4
54439;BME280;40347;53.848;27.498;2022-11-24T23:19:03;1011.5;;;1.5;69.4
54439;BME280;40347;53.848;27.498;2022-11-24T23:24:04;1011.5;;;1.6;69.8
54439;BME280;40347;53.848;27.498;2022-11-24T23:29:13;1011.5;;;1.5;69.9
54439;BME280;40347;53.848;27.498;2022-11-24T23:34:03;1011.5;;;1.6;69.7
54439;BME280;40347;53.848;27.498;2022-11-24T23:39:04;1011.5;;;1.5;69.7
54439;BME280;40347;53.848;27.498;2022-11-24T23:44:03;1011.5;;;1.5;69.8
54439;BME280;40347;53.848;27.498;2022-11-24T23:49:13;1011.6;;;1.5;69.8
54439;BME280;40347;53.848;27.498;2022-11-24T23:54:13;1011.5;;;1.5;69.9
54439;BME280;40347;53.848;27.498;2022-11-24T23:59:03;1011.5;;;1.5;70.2
